Time,TemperatureF,DewpointF,PressureIn,WindDirection,WindDirectionDegrees,WindSpeedMPH,WindSpeedGustMPH,Humidity,HourlyPrecipIn,Conditions,Clouds,dailyrainin,SoftwareType,DateUTC
2013-04-10 00:00:00,56.0,43.0,-100.00,North,-999,-999.0,-999.0,62,0.00,,,-99.99,,2013-04-10 07:00:00,
2013-04-10 00:22:00,56.0,43.0,-100.00,North,-999,-999.0,-999.0,62,0.00,,,-99.99,,2013-04-10 07:22:00,
2013-04-10 00:32:00,56.0,43.0,-100.00,North,-999,-999.0,-999.0,62,0.00,,,-99.99,,2013-04-10 07:32:00,
2013-04-10 00:42:00,56.0,43.0,-100.00,North,-999,-999.0,-999.0,62,0.00,,,-99.99,,2013-04-10 07:42:00,
2013-04-10 00:52:00,56.0,43.0,-100.00,North,-999,-999.0,-999.0,62,0.00,,,-99.99,,2013-04-10 07:52:00,
2013-04-10 01:00:00,54.0,44.0,-100.00,North,-999,-999.0,-999.0,68,0.00,,,-99.99,,2013-04-10 08:00:00,
2013-04-10 01:22:00,54.0,44.0,-100.00,North,-999,-999.0,-999.0,68,0.00,,,-99.99,,2013-04-10 08:22:00,
2013-04-10 01:32:00,54.0,44.0,-100.00,North,-999,-999.0,-999.0,68,0.00,,,-99.99,,2013-04-10 08:32:00,
2013-04-10 01:42:00,54.0,44.0,-100.00,North,-999,-999.0,-999.0,68,0.00,,,-99.99,,2013-04-10 08:42:00,
2013-04-10 01:52:00,54.0,44.0,-100.00,North,-999,-999.0,-999.0,68,0.00,,,-99.99,,2013-04-10 08:52:00,
2013-04-10 02:00:00,54.0,43.0,-100.00,North,-999,-999.0,-999.0,68,0.00,,,-99.99,,2013-04-10 09:00:00,
2013-04-10 02:22:00,54.0,43.0,-100.00,North,-999,-999.0,-999.0,68,0.00,,,-99.99,,2013-04-10 09:22:00,
2013-04-10 02:32:00,54.0,43.0,-100.00,North,-999,-999.0,-999.0,68,0.00,,,-99.99,,2013-04-10 09:32:00,
2013-04-10 02:43:00,54.0,43.0,-100.00,North,-999,-999.0,-999.0,68,0.00,,,-99.99,,2013-04-10 09:43:00,
2013-04-10 02:53:00,54.0,43.0,-100.00,North,-999,-999.0,-999.0,68,0.00,,,-99.99,,2013-04-10 09:53:00,
2013-04-10 03:00:00,58.0,44.0,-100.00,North,-999,-999.0,-999.0,59,0.00,,,-99.99,,2013-04-10 10:00:00,
2013-04-10 03:23:00,58.0,44.0,-100.00,North,-999,-999.0,-999.0,59,0.00,,,-99.99,,2013-04-10 10:23:00,
2013-04-10 03:33:00,58.0,44.0,-100.00,North,-999,-999.0,-999.0,59,0.00,,,-99.99,,2013-04-10 10:33:00,
2013-04-10 03:43:00,58.0,44.0,-100.00,North,-999,-999.0,-999.0,59,0.00,,,-99.99,,2013-04-10 10:43:00,
2013-04-10 03:52:00,58.0,44.0,-100.00,North,-999,-999.0,-999.0,59,0.00,,,-99.99,,2013-04-10 10:52:00,
2013-04-10 04:00:00,60.0,45.0,-100.00,North,-999,-999.0,-999.0,56,0.00,,,-99.99,,2013-04-10 11:00:00,
2013-04-10 04:22:00,60.0,45.0,-100.00,North,-999,-999.0,-999.0,56,0.00,,,-99.99,,2013-04-10 11:22:00,
2013-04-10 04:32:00,60.0,45.0,-100.00,North,-999,-999.0,-999.0,56,0.00,,,-99.99,,2013-04-10 11:32:00,
2013-04-10 04:42:00,60.0,45.0,-100.00,North,-999,-999.0,-999.0,56,0.00,,,-99.99,,2013-04-10 11:42:00,
2013-04-10 04:53:00,60.0,45.0,-100.00,North,-999,-999.0,-999.0,56,0.00,,,-99.99,,2013-04-10 11:53:00,
2013-04-10 05:00:00,57.0,45.0,-100.00,North,-999,-999.0,-999.0,64,0.00,,,-99.99,,2013-04-10 12:00:00,
2013-04-10 05:23:00,57.0,45.0,-100.00,North,-999,-999.0,-999.0,64,0.00,,,-99.99,,2013-04-10 12:23:00,
2013-04-10 05:33:00,57.0,45.0,-100.00,North,-999,-999.0,-999.0,64,0.00,,,-99.99,,2013-04-10 12:33:00,
2013-04-10 05:43:00,57.0,45.0,-100.00,North,-999,-999.0,-999.0,64,0.00,,,-99.99,,2013-04-10 12:43:00,
2013-04-10 05:52:00,57.0,45.0,-100.00,North,-999,-999.0,-999.0,64,0.00,,,-99.99,,2013-04-10 12:52:00,
2013-04-10 06:00:00,54.0,45.0,-100.00,North,-999,-999.0,-999.0,71,0.00,,,-99.99,,2013-04-10 13:00:00,
2013-04-10 06:23:00,54.0,45.0,-100.00,North,-999,-999.0,-999.0,71,0.00,,,-99.99,,2013-04-10 13:23:00,
2013-04-10 06:32:00,54.0,45.0,-100.00,North,-999,-999.0,-999.0,71,0.00,,,-99.99,,2013-04-10 13:32:00,
2013-04-10 06:43:00,54.0,45.0,-100.00,North,-999,-999.0,-999.0,71,0.00,,,-99.99,,2013-04-10 13:43:00,
2013-04-10 06:53:00,54.0,45.0,-100.00,North,-999,-999.0,-999.0,71,0.00,,,-99.99,,2013-04-10 13:53:00,
2013-04-10 07:00:00,53.0,45.0,-100.00,North,-999,-999.0,-999.0,72,0.00,,,-99.99,,2013-04-10 14:00:00,
2013-04-10 07:22:00,53.0,45.0,-100.00,North,-999,-999.0,-999.0,72,0.00,,,-99.99,,2013-04-10 14:22:00,
2013-04-10 07:33:00,53.0,45.0,-100.00,North,-999,-999.0,-999.0,72,0.00,,,-99.99,,2013-04-10 14:33:00,
2013-04-10 07:42:00,53.0,45.0,-100.00,North,-999,-999.0,-999.0,72,0.00,,,-99.99,,2013-04-10 14:42:00,
2013-04-10 07:52:00,53.0,45.0,-100.00,North,-999,-999.0,-999.0,72,0.00,,,-99.99,,2013-04-10 14:52:00,
2013-04-10 08:00:00,58.0,47.0,-100.00,North,-999,-999.0,-999.0,64,0.00,,,-99.99,,2013-04-10 15:00:00,
2013-04-10 08:23:00,58.0,47.0,-100.00,North,-999,-999.0,-999.0,64,0.00,,,-99.99,,2013-04-10 15:23:00,
2013-04-10 08:33:00,58.0,47.0,-100.00,North,-999,-999.0,-999.0,64,0.00,,,-99.99,,2013-04-10 15:33:00,
2013-04-10 08:43:00,58.0,47.0,-100.00,North,-999,-999.0,-999.0,64,0.00,,,-99.99,,2013-04-10 15:43:00,
2013-04-10 08:52:00,58.0,47.0,-100.00,North,-999,-999.0,-999.0,64,0.00,,,-99.99,,2013-04-10 15:52:00,
2013-04-10 09:00:00,66.0,49.0,-100.00,North,-999,-999.0,-999.0,54,0.00,,,-99.99,,2013-04-10 16:00:00,
2013-04-10 09:23:00,66.0,49.0,-100.00,North,-999,-999.0,-999.0,54,0.00,,,-99.99,,2013-04-10 16:23:00,
2013-04-10 09:33:00,66.0,49.0,-100.00,North,-999,-999.0,-999.0,54,0.00,,,-99.99,,2013-04-10 16:33:00,
2013-04-10 09:43:00,66.0,49.0,-100.00,North,-999,-999.0,-999.0,54,0.00,,,-99.99,,2013-04-10 16:43:00,
2013-04-10 09:53:00,66.0,49.0,-100.00,North,-999,-999.0,-999.0,54,0.00,,,-99.99,,2013-04-10 16:53:00,
2013-04-10 10:00:00,72.0,51.0,-100.00,North,-999,-999.0,-999.0,47,0.00,,,-99.99,,2013-04-10 17:00:00,
2013-04-10 10:22:00,72.0,51.0,-100.00,North,-999,-999.0,-999.0,47,0.00,,,-99.99,,2013-04-10 17:22:00,
2013-04-10 10:33:00,72.0,51.0,-100.00,North,-999,-999.0,-999.0,47,0.00,,,-99.99,,2013-04-10 17:33:00,
2013-04-10 10:43:00,72.0,51.0,-100.00,North,-999,-999.0,-999.0,47,0.00,,,-99.99,,2013-04-10 17:43:00,
2013-04-10 10:52:00,72.0,51.0,-100.00,North,-999,-999.0,-999.0,47,0.00,,,-99.99,,2013-04-10 17:52:00,
2013-04-10 11:00:00,75.0,52.0,-100.00,North,-999,-999.0,-999.0,43,0.00,,,-99.99,,2013-04-10 18:00:00,
2013-04-10 11:23:00,75.0,52.0,-100.00,North,-999,-999.0,-999.0,43,0.00,,,-99.99,,2013-04-10 18:23:00,
2013-04-10 11:33:00,75.0,52.0,-100.00,North,-999,-999.0,-999.0,43,0.00,,,-99.99,,2013-04-10 18:33:00,
2013-04-10 11:43:00,75.0,52.0,-100.00,North,-999,-999.0,-999.0,43,0.00,,,-99.99,,2013-04-10 18:43:00,
2013-04-10 11:52:00,75.0,52.0,-100.00,North,-999,-999.0,-999.0,43,0.00,,,-99.99,,2013-04-10 18:52:00,
2013-04-10 12:00:00,79.0,54.0,-100.00,North,-999,-999.0,-999.0,42,0.00,,,-99.99,,2013-04-10 19:00:00,
2013-04-10 12:22:00,79.0,54.0,-100.00,North,-999,-999.0,-999.0,42,0.00,,,-99.99,,2013-04-10 19:22:00,
2013-04-10 12:33:00,79.0,54.0,-100.00,North,-999,-999.0,-999.0,42,0.00,,,-99.99,,2013-04-10 19:33:00,
2013-04-10 12:42:00,79.0,54.0,-100.00,North,-999,-999.0,-999.0,42,0.00,,,-99.99,,2013-04-10 19:42:00,
2013-04-10 12:53:00,79.0,54.0,-100.00,North,-999,-999.0,-999.0,42,0.00,,,-99.99,,2013-04-10 19:53:00,
2013-04-10 13:00:00,82.0,50.0,-100.00,North,-999,-999.0,-999.0,33,0.00,,,-99.99,,2013-04-10 20:00:00,
2013-04-10 13:23:00,82.0,50.0,-100.00,North,-999,-999.0,-999.0,33,0.00,,,-99.99,,2013-04-10 20:23:00,
2013-04-10 13:33:00,82.0,50.0,-100.00,North,-999,-999.0,-999.0,33,0.00,,,-99.99,,2013-04-10 20:33:00,
2013-04-10 13:42:00,82.0,50.0,-100.00,North,-999,-999.0,-999.0,33,0.00,,,-99.99,,2013-04-10 20:42:00,
2013-04-10 13:52:00,82.0,50.0,-100.00,North,-999,-999.0,-999.0,33,0.00,,,-99.99,,2013-04-10 20:52:00,
2013-04-10 14:00:00,83.0,50.0,-100.00,North,-999,-999.0,-999.0,31,0.00,,,-99.99,,2013-04-10 21:00:00,
2013-04-10 14:22:00,83.0,50.0,-100.00,North,-999,-999.0,-999.0,31,0.00,,,-99.99,,2013-04-10 21:22:00,
2013-04-10 14:33:00,83.0,50.0,-100.00,North,-999,-999.0,-999.0,31,0.00,,,-99.99,,2013-04-10 21:33:00,
2013-04-10 14:43:00,83.0,50.0,-100.00,North,-999,-999.0,-999.0,31,0.00,,,-99.99,,2013-04-10 21:43:00,
2013-04-10 14:53:00,83.0,50.0,-100.00,North,-999,-999.0,-999.0,31,0.00,,,-99.99,,2013-04-10 21:53:00,
2013-04-10 15:00:00,84.0,47.0,-100.00,North,-999,-999.0,-999.0,27,0.00,,,-99.99,,2013-04-10 22:00:00,
2013-04-10 15:23:00,84.0,47.0,-100.00,North,-999,-999.0,-999.0,27,0.00,,,-99.99,,2013-04-10 22:23:00,
2013-04-10 15:34:00,84.0,47.0,-100.00,North,-999,-999.0,-999.0,27,0.00,,,-99.99,,2013-04-10 22:34:00,
2013-04-10 15:42:00,84.0,47.0,-100.00,North,-999,-999.0,-999.0,27,0.00,,,-99.99,,2013-04-10 22:42:00,
2013-04-10 15:52:00,84.0,47.0,-100.00,North,-999,-999.0,-999.0,27,0.00,,,-99.99,,2013-04-10 22:52:00,
2013-04-10 16:00:00,83.0,48.0,-100.00,North,-999,-999.0,-999.0,30,0.00,,,-99.99,,2013-04-10 23:00:00,
2013-04-10 16:22:00,83.0,48.0,-100.00,North,-999,-999.0,-999.0,30,0.00,,,-99.99,,2013-04-10 23:22:00,
2013-04-10 16:33:00,83.0,48.0,-100.00,North,-999,-999.0,-999.0,30,0.00,,,-99.99,,2013-04-10 23:33:00,
2013-04-10 16:43:00,83.0,48.0,-100.00,North,-999,-999.0,-999.0,30,0.00,,,-99.99,,2013-04-10 23:43:00,
2013-04-10 16:52:00,83.0,48.0,-100.00,North,-999,-999.0,-999.0,30,0.00,,,-99.99,,2013-04-10 23:52:00,
2013-04-10 17:00:00,80.0,48.0,-100.00,North,-999,-999.0,-999.0,33,0.00,,,-99.99,,2013-04-11 00:00:00,
2013-04-10 17:23:00,80.0,48.0,-100.00,North,-999,-999.0,-999.0,33,0.00,,,-99.99,,2013-04-11 00:23:00,
2013-04-10 17:32:00,80.0,48.0,-100.00,North,-999,-999.0,-999.0,33,0.00,,,-99.99,,2013-04-11 00:32:00,
2013-04-10 17:42:00,80.0,48.0,-100.00,North,-999,-999.0,-999.0,33,0.00,,,-99.99,,2013-04-11 00:42:00,
2013-04-10 17:52:00,80.0,48.0,-100.00,North,-999,-999.0,-999.0,33,0.00,,,-99.99,,2013-04-11 00:52:00,
2013-04-10 18:00:00,75.0,49.0,-100.00,North,-999,-999.0,-999.0,40,0.00,,,-99.99,,2013-04-11 01:00:00,
2013-04-10 18:22:00,75.0,49.0,-100.00,North,-999,-999.0,-999.0,40,0.00,,,-99.99,,2013-04-11 01:22:00,
2013-04-10 18:32:00,75.0,49.0,-100.00,North,-999,-999.0,-999.0,40,0.00,,,-99.99,,2013-04-11 01:32:00,
2013-04-10 18:42:00,75.0,49.0,-100.00,North,-999,-999.0,-999.0,40,0.00,,,-99.99,,2013-04-11 01:42:00,
2013-04-10 18:52:00,75.0,49.0,-100.00,North,-999,-999.0,-999.0,40,0.00,,,-99.99,,2013-04-11 01:52:00,
2013-04-10 19:00:00,71.0,51.0,-100.00,North,-999,-999.0,-999.0,49,0.00,,,-99.99,,2013-04-11 02:00:00,
2013-04-10 19:22:00,71.0,51.0,-100.00,North,-999,-999.0,-999.0,49,0.00,,,-99.99,,2013-04-11 02:22:00,
2013-04-10 19:32:00,71.0,51.0,-100.00,North,-999,-999.0,-999.0,49,0.00,,,-99.99,,2013-04-11 02:32:00,
2013-04-10 19:42:00,71.0,51.0,-100.00,North,-999,-999.0,-999.0,49,0.00,,,-99.99,,2013-04-11 02:42:00,
2013-04-10 19:52:00,71.0,51.0,-100.00,North,-999,-999.0,-999.0,49,0.00,,,-99.99,,2013-04-11 02:52:00,
2013-04-10 20:00:00,68.0,51.0,-100.00,North,-999,-999.0,-999.0,53,0.00,,,-99.99,,2013-04-11 03:00:00,
2013-04-10 20:22:00,68.0,51.0,-100.00,North,-999,-999.0,-999.0,53,0.00,,,-99.99,,2013-04-11 03:22:00,
2013-04-10 20:33:00,68.0,51.0,-100.00,North,-999,-999.0,-999.0,53,0.00,,,-99.99,,2013-04-11 03:33:00,
2013-04-10 20:43:00,68.0,51.0,-100.00,North,-999,-999.0,-999.0,53,0.00,,,-99.99,,2013-04-11 03:43:00,
2013-04-10 20:53:00,68.0,51.0,-100.00,North,-999,-999.0,-999.0,53,0.00,,,-99.99,,2013-04-11 03:53:00,
2013-04-10 21:00:00,66.0,51.0,-100.00,North,-999,-999.0,-999.0,56,0.00,,,-99.99,,2013-04-11 04:00:00,
2013-04-10 21:23:00,66.0,51.0,-100.00,North,-999,-999.0,-999.0,56,0.00,,,-99.99,,2013-04-11 04:23:00,
2013-04-10 21:33:00,66.0,51.0,-100.00,North,-999,-999.0,-999.0,56,0.00,,,-99.99,,2013-04-11 04:33:00,
2013-04-10 21:43:00,66.0,51.0,-100.00,North,-999,-999.0,-999.0,56,0.00,,,-99.99,,2013-04-11 04:43:00,
2013-04-10 21:52:00,66.0,51.0,-100.00,North,-999,-999.0,-999.0,56,0.00,,,-99.99,,2013-04-11 04:52:00,
2013-04-10 22:00:00,63.0,50.0,-100.00,North,-999,-999.0,-999.0,61,0.00,,,-99.99,,2013-04-11 05:00:00,
2013-04-10 22:23:00,63.0,50.0,-100.00,North,-999,-999.0,-999.0,61,0.00,,,-99.99,,2013-04-11 05:23:00,
2013-04-10 22:32:00,63.0,50.0,-100.00,North,-999,-999.0,-999.0,61,0.00,,,-99.99,,2013-04-11 05:32:00,
2013-04-10 22:42:00,63.0,50.0,-100.00,North,-999,-999.0,-999.0,61,0.00,,,-99.99,,2013-04-11 05:42:00,
2013-04-10 22:52:00,63.0,50.0,-100.00,North,-999,-999.0,-999.0,61,0.00,,,-99.99,,2013-04-11 05:52:00,
2013-04-10 23:00:00,62.0,50.0,-100.00,North,-999,-999.0,-999.0,64,0.00,,,-99.99,,2013-04-11 06:00:00,
2013-04-10 23:22:00,62.0,50.0,-100.00,North,-999,-999.0,-999.0,64,0.00,,,-99.99,,2013-04-11 06:22:00,
2013-04-10 23:32:00,62.0,50.0,-100.00,North,-999,-999.0,-999.0,64,0.00,,,-99.99,,2013-04-11 06:32:00,
2013-04-10 23:42:00,62.0,50.0,-100.00,North,-999,-999.0,-999.0,64,0.00,,,-99.99,,2013-04-11 06:42:00,
2013-04-10 23:52:00,62.0,50.0,-100.00,North,-999,-999.0,-999.0,64,0.00,,,-99.99,,2013-04-11 06:52:00,